createdAt,value
2022-12-06T00:01:23.033Z,28.10
2022-12-06T00:03:54.007Z,29.55
2022-12-06T00:06:23.672Z,28.19
2022-12-06T00:08:52.005Z,27.54
2022-12-06T00:11:23.088Z,27.65
2022-12-06T00:13:55.372Z,26.19
2022-12-06T00:16:23.399Z,28.23
2022-12-06T00:18:50.309Z,28.36
2022-12-06T00:21:28.394Z,25.94
2022-12-06T00:24:07.341Z,27.17
2022-12-06T00:26:43.028Z,25.53
2022-12-06T00:29:15.422Z,26.32
2022-12-06T00:31:42.365Z,26.30
2022-12-06T00:34:09.349Z,29.04
2022-12-06T00:36:39.075Z,26.43
2022-12-06T00:39:11.836Z,25.80
2022-12-06T00:41:39.648Z,28.56
2022-12-06T00:44:07.234Z,27.38
2022-12-06T00:46:35.481Z,26.04
2022-12-06T00:49:04.641Z,27.18
2022-12-06T00:51:33.109Z,27.17
2022-12-06T00:54:00.053Z,27.09
2022-12-06T00:56:27.278Z,30.19
2022-12-06T00:58:54.628Z,27.29
2022-12-06T01:01:27.140Z,25.92
2022-12-06T01:03:59.544Z,27.47
2022-12-06T01:06:30.321Z,26.45
2022-12-06T01:08:59.988Z,27.51
2022-12-06T01:11:27.788Z,26.67
2022-12-06T01:13:55.496Z,25.78
2022-12-06T01:16:27.744Z,28.86
2022-12-06T01:19:03.156Z,26.11
2022-12-06T01:21:30.872Z,26.76
2022-12-06T01:23:57.676Z,28.38
2022-12-06T01:26:33.493Z,26.81
2022-12-06T01:29:01.518Z,26.07
2022-12-06T01:31:35.511Z,26.37
2022-12-06T01:34:06.029Z,27.53
2022-12-06T01:36:33.663Z,26.46
2022-12-06T01:39:01.679Z,25.72
2022-12-06T01:41:28.411Z,25.24
2022-12-06T01:43:56.269Z,26.33
2022-12-06T01:46:45.250Z,26.07
2022-12-06T01:49:11.899Z,25.26
2022-12-06T01:51:43.824Z,26.18
2022-12-06T01:54:13.761Z,25.79
2022-12-06T01:56:40.848Z,26.35
2022-12-06T01:59:09.697Z,27.32
2022-12-06T02:01:39.056Z,25.57
2022-12-06T02:04:07.088Z,26.67
2022-12-06T02:06:34.986Z,26.04
2022-12-06T02:09:05.235Z,28.04
2022-12-06T02:11:35.342Z,25.62
2022-12-06T02:14:09.911Z,27.61
2022-12-06T02:16:55.118Z,27.30
2022-12-06T02:19:54.274Z,25.57
2022-12-06T02:22:45.977Z,25.95
2022-12-06T02:25:34.315Z,26.08
2022-12-06T02:28:05.243Z,25.19
2022-12-06T02:31:00.105Z,26.20
2022-12-06T02:33:44.239Z,26.59
2022-12-06T02:37:09.981Z,28.75
2022-12-06T02:39:49.777Z,27.00
2022-12-06T02:42:23.758Z,27.56
2022-12-06T02:44:54.965Z,26.66
2022-12-06T02:47:27.350Z,26.41
2022-12-06T02:49:57.086Z,26.62
2022-12-06T02:52:27.683Z,27.55
2022-12-06T02:54:57.424Z,29.41
2022-12-06T02:57:35.813Z,26.64
2022-12-06T03:00:02.805Z,26.00
2022-12-06T03:02:31.955Z,27.70
2022-12-06T03:05:13.315Z,25.97
2022-12-06T03:07:45.276Z,26.02
2022-12-06T03:10:41.131Z,26.40
2022-12-06T03:13:25.856Z,25.04
2022-12-06T03:16:07.650Z,25.04
2022-12-06T03:18:44.148Z,28.26
2022-12-06T03:21:19.429Z,25.86
2022-12-06T03:23:51.125Z,26.42
2022-12-06T03:26:25.513Z,24.82
2022-12-06T03:28:56.657Z,28.70
2022-12-06T03:31:24.706Z,25.72
2022-12-06T03:34:01.719Z,29.04
2022-12-06T03:36:31.117Z,27.31
2022-12-06T03:39:05.818Z,27.71
2022-12-06T03:41:39.318Z,26.36
2022-12-06T03:44:06.513Z,25.91
2022-12-06T03:46:39.616Z,25.40
2022-12-06T03:49:18.148Z,26.37
2022-12-06T03:51:46.076Z,25.36
2022-12-06T03:54:13.531Z,25.51
2022-12-06T03:56:40.932Z,26.02
2022-12-06T03:59:10.848Z,24.56
2022-12-06T04:01:39.696Z,26.88
2022-12-06T04:04:07.151Z,25.69
2022-12-06T04:06:33.961Z,25.37
2022-12-06T04:09:20.390Z,24.33
2022-12-06T04:11:47.147Z,24.38
2022-12-06T04:14:14.085Z,27.76
2022-12-06T04:17:00.749Z,27.57
2022-12-06T04:19:27.452Z,26.11
2022-12-06T04:22:12.776Z,25.75
2022-12-06T04:24:39.973Z,28.64
2022-12-06T04:27:25.882Z,27.94
2022-12-06T04:30:11.265Z,24.43
2022-12-06T04:32:56.405Z,23.38
2022-12-06T04:35:41.681Z,23.63
2022-12-06T04:38:26.840Z,24.81
2022-12-06T04:40:53.612Z,23.91
2022-12-06T04:43:38.629Z,23.75
2022-12-06T04:46:07.133Z,27.06
2022-12-06T04:48:33.850Z,25.48
2022-12-06T04:51:00.589Z,28.51
2022-12-06T04:53:27.334Z,30.84
2022-12-06T04:55:54.339Z,31.11
2022-12-06T04:58:21.841Z,29.59
2022-12-06T05:00:55.371Z,27.33
2022-12-06T05:03:22.333Z,27.19
2022-12-06T05:05:50.373Z,26.17
2022-12-06T05:08:17.153Z,27.63
2022-12-06T05:10:48.209Z,27.75
2022-12-06T05:13:15.873Z,28.47
2022-12-06T05:16:03.526Z,28.34
2022-12-06T05:18:30.727Z,27.15
2022-12-06T05:21:16.809Z,25.42
2022-12-06T05:23:44.097Z,24.15
2022-12-06T05:26:13.613Z,28.38
2022-12-06T05:28:40.631Z,29.04
2022-12-06T05:31:07.858Z,28.03
2022-12-06T05:33:35.806Z,25.06
2022-12-06T05:36:15.889Z,24.14
2022-12-06T05:38:45.800Z,25.52
2022-12-06T05:41:15.277Z,25.47
2022-12-06T05:43:42.359Z,28.16
2022-12-06T05:46:09.242Z,26.53
2022-12-06T05:48:36.485Z,26.18
2022-12-06T05:51:03.624Z,26.10
2022-12-06T05:53:30.448Z,25.51
2022-12-06T05:56:03.129Z,24.46
2022-12-06T05:58:29.808Z,26.58
2022-12-06T06:00:57.054Z,25.83
2022-12-06T06:03:24.709Z,26.38
2022-12-06T06:05:56.890Z,25.20
2022-12-06T06:08:23.712Z,25.90
2022-12-06T06:10:51.280Z,26.14
2022-12-06T06:13:18.097Z,27.65
2022-12-06T06:15:44.810Z,28.44
2022-12-06T06:18:12.197Z,24.99
2022-12-06T06:20:39.228Z,24.97
2022-12-06T06:23:06.813Z,24.18
2022-12-06T06:25:33.518Z,26.00
2022-12-06T06:28:00.229Z,26.76
2022-12-06T06:30:27.472Z,26.08
2022-12-06T06:32:54.268Z,26.95
2022-12-06T06:35:21.359Z,24.85
2022-12-06T06:37:48.288Z,27.02
2022-12-06T06:40:15.087Z,26.72
2022-12-06T06:42:42.359Z,26.61
2022-12-06T06:45:09.550Z,25.17
2022-12-06T06:47:36.943Z,27.28
2022-12-06T06:50:04.357Z,27.09
2022-12-06T06:52:30.984Z,27.26
2022-12-06T06:54:57.645Z,26.87
2022-12-06T06:57:25.000Z,29.01
2022-12-06T06:59:52.104Z,27.63
2022-12-06T07:02:19.295Z,27.72
2022-12-06T07:04:46.014Z,26.76
2022-12-06T07:07:19.312Z,27.14
2022-12-06T07:09:48.289Z,26.14
2022-12-06T07:12:15.509Z,25.20
2022-12-06T07:14:42.628Z,27.56
2022-12-06T07:17:09.415Z,27.96
2022-12-06T07:19:36.811Z,29.82
2022-12-06T07:22:03.554Z,26.50
2022-12-06T07:24:30.230Z,25.77
2022-12-06T07:26:57.649Z,24.48
2022-12-06T07:29:24.443Z,23.99
2022-12-06T07:31:53.069Z,24.60
2022-12-06T07:34:19.791Z,25.13
2022-12-06T07:36:46.505Z,23.97
2022-12-06T07:39:15.054Z,23.99
2022-12-06T07:42:01.143Z,23.67
2022-12-06T07:45:02.800Z,25.96
2022-12-06T07:47:38.425Z,28.21
2022-12-06T07:50:12.886Z,26.19
2022-12-06T07:52:43.519Z,22.99
2022-12-06T07:55:11.861Z,22.90
2022-12-06T07:57:43.433Z,26.22
2022-12-06T08:00:14.498Z,24.08
2022-12-06T08:02:41.861Z,22.95
2022-12-06T08:05:09.730Z,19.45
2022-12-06T08:07:37.729Z,22.75
2022-12-06T08:10:05.835Z,23.21
2022-12-06T08:12:32.860Z,25.05
2022-12-06T08:15:00.286Z,25.69
2022-12-06T08:17:29.817Z,23.22
2022-12-06T08:19:57.186Z,23.04
2022-12-06T08:22:24.096Z,21.86
2022-12-06T08:24:50.811Z,21.72
2022-12-06T08:27:17.555Z,19.77
2022-12-06T08:29:45.398Z,18.20
2022-12-06T08:32:13.384Z,19.59
2022-12-06T08:34:40.331Z,17.76
2022-12-06T08:37:08.064Z,19.09
2022-12-06T08:39:34.802Z,20.51
2022-12-06T08:42:06.334Z,22.28
2022-12-06T08:44:33.198Z,22.80
2022-12-06T08:47:01.750Z,18.62
2022-12-06T08:49:30.098Z,18.98
2022-12-06T08:51:59.204Z,18.04
2022-12-06T08:54:27.361Z,22.62
2022-12-06T08:56:54.622Z,18.45
2022-12-06T08:59:21.593Z,19.40
2022-12-06T09:01:48.773Z,17.68
2022-12-06T09:04:15.729Z,17.38
2022-12-06T09:06:44.927Z,17.83
2022-12-06T09:09:13.625Z,22.23
2022-12-06T09:11:41.409Z,22.02
2022-12-06T09:14:19.546Z,20.38
2022-12-06T09:16:50.725Z,20.25
2022-12-06T09:19:17.826Z,23.19
2022-12-06T09:21:46.461Z,25.85
2022-12-06T09:24:16.056Z,26.38
2022-12-06T09:26:44.016Z,25.19
2022-12-06T09:29:11.437Z,25.15
2022-12-06T09:31:41.108Z,28.88
2022-12-06T09:34:09.576Z,26.67
2022-12-06T09:36:43.756Z,26.36
2022-12-06T09:39:21.516Z,28.49
2022-12-06T09:41:57.512Z,25.60
2022-12-06T09:44:37.057Z,26.61
2022-12-06T09:47:06.606Z,26.49
2022-12-06T09:49:54.704Z,24.87
2022-12-06T09:52:40.465Z,27.04
2022-12-06T09:55:10.237Z,24.14
2022-12-06T09:57:58.173Z,25.57
2022-12-06T10:00:28.705Z,26.45
2022-12-06T10:03:14.309Z,24.31
2022-12-06T10:06:03.730Z,23.35
2022-12-06T10:08:39.975Z,24.20
2022-12-06T10:11:15.901Z,22.55
2022-12-06T10:14:20.884Z,23.22
2022-12-06T10:17:18.557Z,23.70
2022-12-06T10:19:50.886Z,26.22
2022-12-06T10:22:36.046Z,26.88
2022-12-06T10:25:16.241Z,26.88
2022-12-06T10:28:11.817Z,26.00
2022-12-06T10:31:06.451Z,26.67
2022-12-06T10:33:53.072Z,28.30
2022-12-06T10:36:35.820Z,25.39
2022-12-06T10:39:17.945Z,24.67
2022-12-06T10:42:09.137Z,24.54
2022-12-06T10:44:45.092Z,23.69
2022-12-06T10:47:16.823Z,24.53
2022-12-06T10:49:55.759Z,24.91
2022-12-06T10:52:43.922Z,26.88
2022-12-06T10:55:10.819Z,26.04
2022-12-06T10:57:43.820Z,24.91
2022-12-06T11:00:25.642Z,26.65
2022-12-06T11:03:47.603Z,25.32
2022-12-06T11:06:33.345Z,26.00
2022-12-06T11:09:13.491Z,24.56
2022-12-06T11:11:41.501Z,25.71
2022-12-06T11:14:27.292Z,24.75
2022-12-06T11:17:39.373Z,24.30
2022-12-06T11:20:15.202Z,24.37
2022-12-06T11:22:48.600Z,25.64
2022-12-06T11:25:36.450Z,24.33
2022-12-06T11:28:21.688Z,23.62
2022-12-06T11:30:54.513Z,24.36
2022-12-06T11:33:34.708Z,23.06
2022-12-06T11:36:05.078Z,24.71
2022-12-06T11:38:35.241Z,23.89
2022-12-06T11:41:04.386Z,25.17
2022-12-06T11:43:35.314Z,24.75
2022-12-06T11:46:04.665Z,24.59
2022-12-06T11:48:34.274Z,24.81
2022-12-06T11:51:01.116Z,24.09
2022-12-06T11:53:42.672Z,24.71
2022-12-06T11:56:20.577Z,24.26
2022-12-06T11:58:56.048Z,25.03
2022-12-06T12:01:46.841Z,24.67
2022-12-06T12:04:24.802Z,23.97
2022-12-06T12:06:57.316Z,23.35
2022-12-06T12:09:26.264Z,24.83
2022-12-06T12:12:03.729Z,25.95
2022-12-06T12:14:39.866Z,23.91
2022-12-06T12:17:34.081Z,24.46
2022-12-06T12:20:08.595Z,24.49
2022-12-06T12:22:42.970Z,24.10
2022-12-06T12:25:29.660Z,24.28
2022-12-06T12:27:58.934Z,24.54
2022-12-06T12:30:32.128Z,25.28
2022-12-06T12:33:07.701Z,24.54
2022-12-06T12:35:37.210Z,24.49
2022-12-06T12:38:11.477Z,24.68
2022-12-06T12:40:45.673Z,24.57
2022-12-06T12:43:12.352Z,24.63
2022-12-06T12:45:41.258Z,24.25
2022-12-06T12:48:26.180Z,25.00
2022-12-06T12:50:58.110Z,24.08
2022-12-06T12:53:36.736Z,24.08
2022-12-06T12:56:08.144Z,25.91
2022-12-06T12:58:36.330Z,24.96
2022-12-06T13:01:19.909Z,26.80
2022-12-06T13:03:51.830Z,24.32
2022-12-06T13:06:32.613Z,25.16
2022-12-06T13:09:03.327Z,24.04
2022-12-06T13:11:31.722Z,26.16
2022-12-06T13:14:00.142Z,26.67
2022-12-06T13:16:35.331Z,24.32
2022-12-06T13:19:02.735Z,23.38
2022-12-06T13:21:37.247Z,25.68
2022-12-06T13:24:10.447Z,24.20
2022-12-06T13:26:39.473Z,26.65
2022-12-06T13:29:37.443Z,24.56
2022-12-06T13:32:15.251Z,24.34
2022-12-06T13:34:49.265Z,24.12
2022-12-06T13:37:43.566Z,23.89
2022-12-06T13:40:50.565Z,24.03
2022-12-06T13:43:27.201Z,24.18
2022-12-06T13:46:00.774Z,24.42
2022-12-06T13:48:27.597Z,23.81
2022-12-06T13:50:57.520Z,24.15
2022-12-06T13:53:26.929Z,24.05
2022-12-06T13:56:14.490Z,24.26
2022-12-06T13:58:49.099Z,24.45
2022-12-06T14:01:39.920Z,23.88
2022-12-06T14:06:56.006Z,24.63
2022-12-06T14:09:24.272Z,24.35
2022-12-06T14:11:51.428Z,24.78
2022-12-06T14:14:23.928Z,25.11
2022-12-06T14:16:54.383Z,25.03
2022-12-06T14:19:21.155Z,24.68
2022-12-06T14:21:56.301Z,24.31
2022-12-06T14:24:38.637Z,25.73
2022-12-06T14:27:17.402Z,25.51
2022-12-06T14:29:58.234Z,24.52
2022-12-06T14:32:38.852Z,23.95
2022-12-06T14:35:12.447Z,23.94
2022-12-06T14:37:39.701Z,24.25
2022-12-06T14:40:51.139Z,25.53
2022-12-06T14:43:19.442Z,24.31
2022-12-06T14:45:46.923Z,24.37
2022-12-06T14:48:14.858Z,24.30
2022-12-06T14:50:43.449Z,24.30
2022-12-06T14:53:30.151Z,23.65
2022-12-06T14:56:02.704Z,24.03
2022-12-06T14:58:33.109Z,23.82
2022-12-06T15:01:36.449Z,23.58
2022-12-06T15:04:07.190Z,24.40
2022-12-06T15:06:35.754Z,23.51
2022-12-06T15:09:02.437Z,24.18
2022-12-06T15:11:47.713Z,25.54
2022-12-06T15:14:17.557Z,25.16
2022-12-06T15:17:00.193Z,25.38
2022-12-06T15:19:30.182Z,25.40
2022-12-06T15:21:57.784Z,24.31
2022-12-06T15:24:26.902Z,24.68
2022-12-06T15:26:53.929Z,24.51
2022-12-06T15:29:21.479Z,24.34
2022-12-06T15:31:51.464Z,24.22
2022-12-06T15:34:28.119Z,25.88
2022-12-06T15:37:30.211Z,25.35
2022-12-06T15:39:48.423Z,24.87
2022-12-06T15:42:21.843Z,24.63
2022-12-06T15:44:50.355Z,24.67
2022-12-06T15:47:19.800Z,26.21
2022-12-06T15:49:47.704Z,24.39
2022-12-06T15:52:21.808Z,24.58
2022-12-06T15:54:48.640Z,24.29
2022-12-06T15:57:15.740Z,24.59
2022-12-06T15:59:43.724Z,24.86
2022-12-06T16:02:16.885Z,26.95
2022-12-06T16:04:45.567Z,24.94
2022-12-06T16:07:13.541Z,24.11
2022-12-06T16:09:40.275Z,25.41
2022-12-06T16:12:07.283Z,25.42
2022-12-06T16:14:33.998Z,25.98
2022-12-06T16:17:00.772Z,25.94
2022-12-06T16:19:49.956Z,27.78
2022-12-06T16:22:17.255Z,26.50
2022-12-06T16:24:45.454Z,28.89
2022-12-06T16:27:14.206Z,25.54
2022-12-06T16:29:40.929Z,26.38
2022-12-06T16:32:07.974Z,25.60
2022-12-06T16:34:34.761Z,25.28
2022-12-06T16:37:09.074Z,25.33
2022-12-06T16:39:35.867Z,24.48
2022-12-06T16:42:04.684Z,25.05
2022-12-06T16:44:32.556Z,25.41
2022-12-06T16:46:59.694Z,24.77
2022-12-06T16:49:46.499Z,25.01
2022-12-06T16:52:14.568Z,25.82
2022-12-06T16:54:42.171Z,24.90
2022-12-06T16:57:11.818Z,24.65
2022-12-06T16:59:40.326Z,25.40
2022-12-06T17:02:23.281Z,25.38
2022-12-06T17:04:49.972Z,25.02
2022-12-06T17:07:17.517Z,26.60
2022-12-06T17:09:44.186Z,26.55
2022-12-06T17:12:14.069Z,27.64
2022-12-06T17:14:41.566Z,25.02
2022-12-06T17:17:17.716Z,25.11
2022-12-06T17:19:46.284Z,25.72
2022-12-06T17:22:19.299Z,23.75
2022-12-06T17:24:46.475Z,24.90
2022-12-06T17:27:15.047Z,24.05
2022-12-06T17:29:45.635Z,23.78
2022-12-06T17:32:14.680Z,25.26
2022-12-06T17:34:41.563Z,24.85
2022-12-06T17:37:08.455Z,24.58
2022-12-06T17:39:35.332Z,25.39
2022-12-06T17:42:21.820Z,25.09
2022-12-06T17:44:50.673Z,25.33
2022-12-06T17:47:18.969Z,25.54
2022-12-06T17:49:46.620Z,24.44
2022-12-06T17:52:14.891Z,24.56
2022-12-06T17:54:41.743Z,24.77
2022-12-06T17:57:15.430Z,25.35
2022-12-06T17:59:42.264Z,24.17
2022-12-06T18:02:16.058Z,24.86
2022-12-06T18:04:45.038Z,26.97
2022-12-06T18:07:13.457Z,25.18
2022-12-06T18:09:40.921Z,25.33
2022-12-06T18:12:10.015Z,25.82
2022-12-06T18:14:36.819Z,29.29
2022-12-06T18:17:04.445Z,27.50
2022-12-06T18:19:31.885Z,27.24
2022-12-06T18:21:58.888Z,27.34
2022-12-06T18:24:30.456Z,26.71
2022-12-06T18:27:00.920Z,26.09
2022-12-06T18:29:29.133Z,25.64
2022-12-06T18:31:56.140Z,25.30
2022-12-06T18:34:23.134Z,26.75
2022-12-06T18:36:51.000Z,26.44
2022-12-06T18:39:24.526Z,26.45
2022-12-06T18:41:53.210Z,28.49
2022-12-06T18:44:20.130Z,26.41
2022-12-06T18:46:47.137Z,25.21
2022-12-06T18:49:15.551Z,25.03
2022-12-06T18:51:42.552Z,26.64
2022-12-06T18:54:10.780Z,27.56
2022-12-06T18:56:37.596Z,27.42
2022-12-06T18:59:07.301Z,26.70
2022-12-06T19:01:36.571Z,26.59
2022-12-06T19:04:05.767Z,25.32
2022-12-06T19:06:35.699Z,26.79
2022-12-06T19:09:09.561Z,28.28
2022-12-06T19:11:40.877Z,27.13
2022-12-06T19:14:08.265Z,27.62
2022-12-06T19:16:38.151Z,26.73
2022-12-06T19:19:11.453Z,24.64
2022-12-06T19:21:44.896Z,25.38
2022-12-06T19:24:13.253Z,26.10
2022-12-06T19:26:41.954Z,26.08
2022-12-06T19:29:08.986Z,26.10
2022-12-06T19:31:36.205Z,24.45
2022-12-06T19:34:04.150Z,30.46
2022-12-06T19:36:32.239Z,28.53
2022-12-06T19:39:06.279Z,25.41
2022-12-06T19:41:52.694Z,27.64
2022-12-06T19:44:19.422Z,25.28
2022-12-06T19:46:47.945Z,25.82
2022-12-06T19:49:17.959Z,25.58
2022-12-06T19:51:47.725Z,25.51
2022-12-06T19:54:18.799Z,24.99
2022-12-06T19:56:49.448Z,24.59
2022-12-06T19:59:17.529Z,25.41
2022-12-06T20:01:47.965Z,26.90
2022-12-06T20:04:19.192Z,26.30
2022-12-06T20:06:47.935Z,29.29
2022-12-06T20:09:15.296Z,27.77
2022-12-06T20:12:01.520Z,26.76
2022-12-06T20:14:36.039Z,26.40
2022-12-06T20:17:06.945Z,26.29
2022-12-06T20:19:34.535Z,26.47
2022-12-06T20:22:01.963Z,27.98
2022-12-06T20:24:30.612Z,31.29
2022-12-06T20:26:57.782Z,26.47
2022-12-06T20:29:27.017Z,26.52
2022-12-06T20:31:56.097Z,25.30
2022-12-06T20:34:22.805Z,25.47
2022-12-06T20:36:49.896Z,24.34
2022-12-06T20:39:25.092Z,25.73
2022-12-06T20:41:52.456Z,27.22
2022-12-06T20:44:20.922Z,26.94
2022-12-06T20:46:50.925Z,26.57
2022-12-06T20:49:17.989Z,26.43
2022-12-06T20:51:51.106Z,26.97
2022-12-06T20:54:20.216Z,25.06
2022-12-06T20:56:51.110Z,26.05
2022-12-06T20:59:17.999Z,28.91
2022-12-06T21:01:46.398Z,25.62
2022-12-06T21:04:14.338Z,27.11
2022-12-06T21:06:42.713Z,26.28
2022-12-06T21:09:09.466Z,25.46
2022-12-06T21:11:37.516Z,26.11
2022-12-06T21:14:06.324Z,27.98
2022-12-06T21:16:34.340Z,26.93
2022-12-06T21:19:06.591Z,26.53
2022-12-06T21:21:39.691Z,26.54
2022-12-06T21:24:18.765Z,26.60
2022-12-06T21:26:47.179Z,25.16
2022-12-06T21:29:29.739Z,27.56
2022-12-06T21:32:01.178Z,24.83
2022-12-06T21:34:28.031Z,25.71
2022-12-06T21:36:54.726Z,25.30
2022-12-06T21:39:22.480Z,26.31
2022-12-06T21:41:50.578Z,23.92
2022-12-06T21:44:17.707Z,23.85
2022-12-06T21:46:45.594Z,23.47
2022-12-06T21:49:12.958Z,25.70
2022-12-06T21:51:39.712Z,24.62
2022-12-06T21:54:09.181Z,25.48
2022-12-06T21:56:36.035Z,26.20
2022-12-06T21:59:03.755Z,25.90
2022-12-06T22:01:32.729Z,24.68
2022-12-06T22:04:04.637Z,24.21
2022-12-06T22:06:33.607Z,23.55
2022-12-06T22:09:05.824Z,24.73
2022-12-06T22:11:34.530Z,25.04
2022-12-06T22:14:02.466Z,24.31
2022-12-06T22:16:29.560Z,24.97
2022-12-06T22:18:57.385Z,25.62
2022-12-06T22:21:27.081Z,24.30
2022-12-06T22:23:57.470Z,25.26
2022-12-06T22:26:25.286Z,24.70
2022-12-06T22:28:52.375Z,23.89
2022-12-06T22:31:25.076Z,23.84
2022-12-06T22:33:52.389Z,24.87
2022-12-06T22:36:21.013Z,24.68
2022-12-06T22:38:52.394Z,24.24
2022-12-06T22:41:20.984Z,23.61
2022-12-06T22:43:52.732Z,25.18
2022-12-06T22:46:20.970Z,24.88
2022-12-06T22:48:48.649Z,24.50
2022-12-06T22:51:21.404Z,24.90
2022-12-06T22:53:53.193Z,25.38
2022-12-06T22:56:21.104Z,24.99
2022-12-06T22:58:48.106Z,24.99
2022-12-06T23:01:17.993Z,28.42
2022-12-06T23:03:46.866Z,25.86
2022-12-06T23:06:14.540Z,24.53
2022-12-06T23:08:42.289Z,24.83
2022-12-06T23:11:15.071Z,26.22
2022-12-06T23:13:42.335Z,26.11
2022-12-06T23:16:18.270Z,24.73
2022-12-06T23:18:45.791Z,24.98
2022-12-06T23:21:27.883Z,25.99
2022-12-06T23:23:56.657Z,24.31
2022-12-06T23:26:26.485Z,24.40
2022-12-06T23:28:53.644Z,24.81
2022-12-06T23:31:26.183Z,23.90
2022-12-06T23:34:02.084Z,24.69
2022-12-06T23:36:32.249Z,24.25
2022-12-06T23:38:58.952Z,28.43
2022-12-06T23:41:28.391Z,29.53
2022-12-06T23:43:56.428Z,27.41
2022-12-06T23:46:26.765Z,27.30
2022-12-06T23:48:53.918Z,27.09
2022-12-06T23:51:23.684Z,27.00
2022-12-06T23:53:59.360Z,26.48
2022-12-06T23:56:28.582Z,25.22
2022-12-06T23:58:56.026Z,24.68
